Terminal Aerodrome Forecast
Issued by NWS

Home | Current Version | Previous Version | Text Only | Print | Product List | Glossary Off
Versions: 1 2 3 4 5 6 7 8 9 10 11 12 13 14 15 16 17 18 19

013
FTUS43 KGRB 152107 AAA
TAFCWA
TAF AMD
KCWA 152107Z 1521/1618 35007KT 1 1/2SM -SN OVC015
      TEMPO 1521/1601 3SM -SN SCT015 OVC030
     FM160100 01006KT 5SM -SN BKN020 OVC040
     FM160500 35005KT P6SM -SN SCT020 OVC040
     FM160900 34004KT P6SM FEW015 OVC040
     FM161500 33007KT P6SM SCT020 OVC040=

USA.gov is the U.S. government's official web portal to all federal, state and local government web resources and services.